North Pole, AK (99705)

2:11 AM AKDT on August 27, 2016 (GMT -0800)
Brookside Subdivision Jim-Tom | | Change Station

Elev 482 ft 64.76 °N, 147.33 °W | Updated 5 minutes ago

Overcast
Overcast
53.1 °F
Feels Like 53.1 °F
N
0.0
Wind Variable Wind from West

Today
High -- | Low -- °F
--% Chance of Precip.
Yesterday
High -- | Low -- °F
Precip. -- in
Pressure 30.23 in
Visibility 10.0 miles
Clouds Overcast 9500 ft
Dew Point 50 °F
Humidity 88%
Rainfall 0.00 in
Snow Depth Not available.
6:16 AM 9:23 PM
Waning Crescent, 26% visible
METAR PAFB 270958Z AUTO 00000KT 10SM OVC095 12/12 A3022 RMK AO2 SLP236 T01230117
Pressure 30.23 in
Visibility 10.0 miles
Clouds Overcast 9500 ft
Dew Point 50 °F
Humidity 88%
Rainfall 0.00 in
Snow Depth Not available.
6:16 AM 9:23 PM
Waning Crescent, 26% visible
METAR PAFB 270958Z AUTO 00000KT 10SM OVC095 12/12 A3022 RMK AO2 SLP236 T01230117

10-Day Weather Forecast

Almanac

Astronomy

Aug. 27, 2016 Rise Set
Actual Time
Civil Twilight
Nautical Twilight
Astronomical Twilight
Moon
Length of Visible Light
Length of Day
Tomorrow will be .
, % of the Moon is Illuminated

Today's Extremes

State Highs State Lows

Community

WunderPhotos

Upload Photos

1,935,313 photos uploaded!

WunderBlog® & News

Nearby

Air Quality

  Air Quality AQ Index Pollutant
Not available.

Snow Depth

Station Depth Elevation

Earthquake Activity

City Distance Mag. Time & Date
Minimum magnitude displayed is 2.5.

Coastal Water Temperatures

Place Temperature

Stations

Nearby Weather Stations

Station Location Temp. Windchill Dew Point Humidity Wind Precip. Elev Updated Type
                   

Watches & Warnings

There are currently no watches in effect.